sensor_id;sensor_type;location;lat;lon;timestamp;P1;durP1;ratioP1;P2;durP2;ratioP2
47772;SDS011;33534;51.028;13.716;2022-11-15T00:02:17;106.90;;;60.30;;
47772;SDS011;33534;51.028;13.716;2022-11-15T00:05:06;99.00;;;58.30;;
47772;SDS011;33534;51.028;13.716;2022-11-15T00:10:40;102.63;;;57.22;;
47772;SDS011;33534;51.028;13.716;2022-11-15T00:13:22;102.53;;;57.85;;
47772;SDS011;33534;51.028;13.716;2022-11-15T00:16:14;103.97;;;59.10;;
47772;SDS011;33534;51.028;13.716;2022-11-15T00:19:01;94.43;;;58.28;;
47772;SDS011;33534;51.028;13.716;2022-11-15T00:36:23;109.38;;;61.17;;
47772;SDS011;33534;51.028;13.716;2022-11-15T00:44:34;96.45;;;57.60;;
47772;SDS011;33534;51.028;13.716;2022-11-15T01:11:26;108.07;;;60.72;;
47772;SDS011;33534;51.028;13.716;2022-11-15T01:14:00;107.20;;;58.50;;
47772;SDS011;33534;51.028;13.716;2022-11-15T01:33:29;139.63;;;68.22;;
47772;SDS011;33534;51.028;13.716;2022-11-15T01:36:51;142.05;;;65.13;;
47772;SDS011;33534;51.028;13.716;2022-11-15T01:46:00;133.07;;;65.90;;
47772;SDS011;33534;51.028;13.716;2022-11-15T01:48:58;138.48;;;66.25;;
47772;SDS011;33534;51.028;13.716;2022-11-15T01:51:40;143.88;;;66.53;;
47772;SDS011;33534;51.028;13.716;2022-11-15T01:54:12;131.00;;;64.35;;
47772;SDS011;33534;51.028;13.716;2022-11-15T01:59:48;137.27;;;65.93;;
47772;SDS011;33534;51.028;13.716;2022-11-15T03:00:08;150.38;;;68.80;;
47772;SDS011;33534;51.028;13.716;2022-11-15T03:48:52;154.20;;;64.90;;
47772;SDS011;33534;51.028;13.716;2022-11-15T03:52:11;143.38;;;60.67;;
47772;SDS011;33534;51.028;13.716;2022-11-15T04:07:49;147.23;;;62.53;;
47772;SDS011;33534;51.028;13.716;2022-11-15T04:26:09;116.68;;;54.00;;
47772;SDS011;33534;51.028;13.716;2022-11-15T04:29:06;130.25;;;55.63;;
47772;SDS011;33534;51.028;13.716;2022-11-15T04:47:30;123.15;;;54.45;;
47772;SDS011;33534;51.028;13.716;2022-11-15T05:13:36;108.03;;;49.67;;
47772;SDS011;33534;51.028;13.716;2022-11-15T05:16:29;111.35;;;50.05;;
47772;SDS011;33534;51.028;13.716;2022-11-15T06:04:08;99.05;;;47.95;;
47772;SDS011;33534;51.028;13.716;2022-11-15T06:10:23;111.95;;;50.50;;
47772;SDS011;33534;51.028;13.716;2022-11-15T06:13:11;76.40;;;36.42;;
47772;SDS011;33534;51.028;13.716;2022-11-15T06:19:29;111.32;;;50.63;;
47772;SDS011;33534;51.028;13.716;2022-11-15T06:22:25;111.57;;;52.15;;
47772;SDS011;33534;51.028;13.716;2022-11-15T06:28:39;110.28;;;51.70;;
47772;SDS011;33534;51.028;13.716;2022-11-15T06:37:39;103.28;;;48.30;;
47772;SDS011;33534;51.028;13.716;2022-11-15T06:40:06;101.85;;;50.83;;
47772;SDS011;33534;51.028;13.716;2022-11-15T06:42:32;106.22;;;51.65;;
47772;SDS011;33534;51.028;13.716;2022-11-15T06:44:58;97.07;;;48.72;;
47772;SDS011;33534;51.028;13.716;2022-11-15T06:47:30;103.18;;;50.35;;
47772;SDS011;33534;51.028;13.716;2022-11-15T06:49:57;110.20;;;50.65;;
47772;SDS011;33534;51.028;13.716;2022-11-15T06:52:23;104.53;;;50.35;;
47772;SDS011;33534;51.028;13.716;2022-11-15T06:54:57;98.43;;;47.25;;
47772;SDS011;33534;51.028;13.716;2022-11-15T06:57:23;101.53;;;47.78;;
47772;SDS011;33534;51.028;13.716;2022-11-15T07:02:29;92.82;;;47.35;;
47772;SDS011;33534;51.028;13.716;2022-11-15T07:05:03;86.57;;;45.10;;
47772;SDS011;33534;51.028;13.716;2022-11-15T07:10:17;65.43;;;34.75;;
47772;SDS011;33534;51.028;13.716;2022-11-15T07:12:57;79.13;;;42.08;;
47772;SDS011;33534;51.028;13.716;2022-11-15T07:15:42;80.93;;;44.30;;
47772;SDS011;33534;51.028;13.716;2022-11-15T07:18:30;83.65;;;44.78;;
47772;SDS011;33534;51.028;13.716;2022-11-15T07:29:55;69.18;;;38.97;;
47772;SDS011;33534;51.028;13.716;2022-11-15T07:39:15;59.45;;;33.60;;
47772;SDS011;33534;51.028;13.716;2022-11-15T07:51:34;61.05;;;34.58;;
47772;SDS011;33534;51.028;13.716;2022-11-15T07:54:12;63.40;;;35.75;;
47772;SDS011;33534;51.028;13.716;2022-11-15T07:59:24;49.53;;;30.98;;
47772;SDS011;33534;51.028;13.716;2022-11-15T08:01:58;53.45;;;32.03;;
47772;SDS011;33534;51.028;13.716;2022-11-15T08:04:38;54.72;;;32.22;;
47772;SDS011;33534;51.028;13.716;2022-11-15T08:07:14;51.10;;;32.10;;
47772;SDS011;33534;51.028;13.716;2022-11-15T08:09:42;51.90;;;32.20;;
47772;SDS011;33534;51.028;13.716;2022-11-15T08:15:30;57.75;;;32.55;;
47772;SDS011;33534;51.028;13.716;2022-11-15T08:17:56;55.53;;;33.47;;
47772;SDS011;33534;51.028;13.716;2022-11-15T08:20:26;60.65;;;33.28;;
47772;SDS011;33534;51.028;13.716;2022-11-15T08:28:42;51.17;;;31.10;;
47772;SDS011;33534;51.028;13.716;2022-11-15T08:31:15;49.10;;;31.00;;
47772;SDS011;33534;51.028;13.716;2022-11-15T08:33:47;47.45;;;30.30;;
47772;SDS011;33534;51.028;13.716;2022-11-15T08:36:14;45.20;;;28.83;;
47772;SDS011;33534;51.028;13.716;2022-11-15T08:38:40;41.97;;;27.63;;
47772;SDS011;33534;51.028;13.716;2022-11-15T09:18:44;38.90;;;22.98;;
47772;SDS011;33534;51.028;13.716;2022-11-15T09:30:37;40.83;;;25.05;;
47772;SDS011;33534;51.028;13.716;2022-11-15T09:33:10;40.63;;;24.63;;
47772;SDS011;33534;51.028;13.716;2022-11-15T09:35:41;41.10;;;24.20;;
47772;SDS011;33534;51.028;13.716;2022-11-15T09:46:28;36.35;;;23.83;;
47772;SDS011;33534;51.028;13.716;2022-11-15T09:55:03;38.78;;;23.30;;
47772;SDS011;33534;51.028;13.716;2022-11-15T09:57:38;36.70;;;24.48;;
47772;SDS011;33534;51.028;13.716;2022-11-15T10:06:26;41.92;;;25.58;;
47772;SDS011;33534;51.028;13.716;2022-11-15T10:39:32;42.15;;;23.35;;
47772;SDS011;33534;51.028;13.716;2022-11-15T10:45:22;36.90;;;23.15;;
47772;SDS011;33534;51.028;13.716;2022-11-15T10:56:33;40.65;;;23.73;;
47772;SDS011;33534;51.028;13.716;2022-11-15T10:59:28;38.00;;;24.98;;
47772;SDS011;33534;51.028;13.716;2022-11-15T11:02:02;33.65;;;22.52;;
47772;SDS011;33534;51.028;13.716;2022-11-15T11:30:20;35.75;;;23.35;;
47772;SDS011;33534;51.028;13.716;2022-11-15T11:51:53;32.80;;;21.67;;
47772;SDS011;33534;51.028;13.716;2022-11-15T11:54:22;34.60;;;22.70;;
47772;SDS011;33534;51.028;13.716;2022-11-15T11:56:51;32.70;;;21.63;;
47772;SDS011;33534;51.028;13.716;2022-11-15T11:59:49;33.33;;;20.58;;
47772;SDS011;33534;51.028;13.716;2022-11-15T12:02:18;35.08;;;21.95;;
47772;SDS011;33534;51.028;13.716;2022-11-15T12:04:48;30.30;;;19.98;;
47772;SDS011;33534;51.028;13.716;2022-11-15T12:07:26;37.08;;;21.40;;
47772;SDS011;33534;51.028;13.716;2022-11-15T12:12:35;35.40;;;21.10;;
47772;SDS011;33534;51.028;13.716;2022-11-15T12:17:29;34.95;;;22.02;;
47772;SDS011;33534;51.028;13.716;2022-11-15T12:19:59;36.58;;;23.05;;
47772;SDS011;33534;51.028;13.716;2022-11-15T12:24:56;35.22;;;22.30;;
47772;SDS011;33534;51.028;13.716;2022-11-15T12:30:14;35.33;;;22.52;;
47772;SDS011;33534;51.028;13.716;2022-11-15T12:32:48;31.33;;;21.80;;
47772;SDS011;33534;51.028;13.716;2022-11-15T12:38:15;35.53;;;21.90;;
47772;SDS011;33534;51.028;13.716;2022-11-15T12:41:20;31.58;;;19.63;;
47772;SDS011;33534;51.028;13.716;2022-11-15T13:08:44;36.90;;;22.02;;
47772;SDS011;33534;51.028;13.716;2022-11-15T13:17:40;30.30;;;20.02;;
47772;SDS011;33534;51.028;13.716;2022-11-15T13:20:44;34.88;;;22.10;;
47772;SDS011;33534;51.028;13.716;2022-11-15T13:37:03;33.40;;;20.73;;
47772;SDS011;33534;51.028;13.716;2022-11-15T13:39:41;35.65;;;21.58;;
47772;SDS011;33534;51.028;13.716;2022-11-15T13:45:32;32.72;;;20.95;;
47772;SDS011;33534;51.028;13.716;2022-11-15T14:00:04;33.00;;;23.17;;
47772;SDS011;33534;51.028;13.716;2022-11-15T14:02:41;34.53;;;22.30;;
47772;SDS011;33534;51.028;13.716;2022-11-15T14:07:39;36.22;;;23.02;;
47772;SDS011;33534;51.028;13.716;2022-11-15T14:12:51;40.70;;;24.60;;
47772;SDS011;33534;51.028;13.716;2022-11-15T14:15:23;34.95;;;22.73;;
47772;SDS011;33534;51.028;13.716;2022-11-15T14:17:50;37.78;;;24.52;;
47772;SDS011;33534;51.028;13.716;2022-11-15T14:20:30;39.67;;;23.98;;
47772;SDS011;33534;51.028;13.716;2022-11-15T14:23:01;35.55;;;23.00;;
47772;SDS011;33534;51.028;13.716;2022-11-15T14:25:34;35.22;;;22.45;;
47772;SDS011;33534;51.028;13.716;2022-11-15T14:30:49;39.53;;;24.45;;
47772;SDS011;33534;51.028;13.716;2022-11-15T14:35:50;39.88;;;23.48;;
47772;SDS011;33534;51.028;13.716;2022-11-15T14:38:16;33.88;;;23.30;;
47772;SDS011;33534;51.028;13.716;2022-11-15T14:40:42;40.33;;;23.95;;
47772;SDS011;33534;51.028;13.716;2022-11-15T14:43:09;36.65;;;23.17;;
47772;SDS011;33534;51.028;13.716;2022-11-15T14:45:36;38.22;;;23.48;;
47772;SDS011;33534;51.028;13.716;2022-11-15T14:48:02;37.75;;;22.85;;
47772;SDS011;33534;51.028;13.716;2022-11-15T14:50:34;39.25;;;23.10;;
47772;SDS011;33534;51.028;13.716;2022-11-15T14:53:01;39.58;;;24.25;;
47772;SDS011;33534;51.028;13.716;2022-11-15T14:55:38;36.78;;;22.90;;
47772;SDS011;33534;51.028;13.716;2022-11-15T14:58:07;37.50;;;23.48;;
47772;SDS011;33534;51.028;13.716;2022-11-15T15:00:37;36.40;;;23.77;;
47772;SDS011;33534;51.028;13.716;2022-11-15T15:03:10;35.92;;;23.95;;
47772;SDS011;33534;51.028;13.716;2022-11-15T15:06:17;38.83;;;23.50;;
47772;SDS011;33534;51.028;13.716;2022-11-15T15:09:03;39.58;;;23.88;;
47772;SDS011;33534;51.028;13.716;2022-11-15T15:11:33;37.25;;;23.10;;
47772;SDS011;33534;51.028;13.716;2022-11-15T15:14:14;40.92;;;25.45;;
47772;SDS011;33534;51.028;13.716;2022-11-15T15:19:29;38.25;;;23.13;;
47772;SDS011;33534;51.028;13.716;2022-11-15T15:21:55;44.13;;;25.05;;
47772;SDS011;33534;51.028;13.716;2022-11-15T15:24:22;38.28;;;23.63;;
47772;SDS011;33534;51.028;13.716;2022-11-15T15:26:54;38.08;;;23.65;;
47772;SDS011;33534;51.028;13.716;2022-11-15T15:32:09;35.90;;;21.70;;
47772;SDS011;33534;51.028;13.716;2022-11-15T15:34:51;39.22;;;24.05;;
47772;SDS011;33534;51.028;13.716;2022-11-15T15:37:28;39.00;;;22.90;;
47772;SDS011;33534;51.028;13.716;2022-11-15T15:39:58;41.50;;;23.92;;
47772;SDS011;33534;51.028;13.716;2022-11-15T15:42:27;38.42;;;22.52;;
47772;SDS011;33534;51.028;13.716;2022-11-15T15:45:15;41.40;;;24.25;;
47772;SDS011;33534;51.028;13.716;2022-11-15T15:47:46;39.17;;;24.92;;
47772;SDS011;33534;51.028;13.716;2022-11-15T15:50:16;43.47;;;24.00;;
47772;SDS011;33534;51.028;13.716;2022-11-15T15:52:55;37.97;;;24.52;;
47772;SDS011;33534;51.028;13.716;2022-11-15T16:15:35;41.08;;;25.17;;
47772;SDS011;33534;51.028;13.716;2022-11-15T16:21:30;43.55;;;24.88;;
47772;SDS011;33534;51.028;13.716;2022-11-15T16:24:02;42.22;;;24.60;;
47772;SDS011;33534;51.028;13.716;2022-11-15T16:26:30;48.58;;;27.48;;
47772;SDS011;33534;51.028;13.716;2022-11-15T16:29:16;43.72;;;26.77;;
47772;SDS011;33534;51.028;13.716;2022-11-15T16:31:49;43.78;;;27.30;;
47772;SDS011;33534;51.028;13.716;2022-11-15T16:34:20;43.55;;;25.65;;
47772;SDS011;33534;51.028;13.716;2022-11-15T16:37:01;43.40;;;25.40;;
47772;SDS011;33534;51.028;13.716;2022-11-15T16:39:47;42.90;;;25.90;;
47772;SDS011;33534;51.028;13.716;2022-11-15T16:42:25;46.35;;;26.65;;
47772;SDS011;33534;51.028;13.716;2022-11-15T16:44:56;44.08;;;25.08;;
47772;SDS011;33534;51.028;13.716;2022-11-15T16:50:25;41.78;;;25.55;;
47772;SDS011;33534;51.028;13.716;2022-11-15T16:53:13;42.60;;;24.92;;
47772;SDS011;33534;51.028;13.716;2022-11-15T16:55:39;41.65;;;23.83;;
47772;SDS011;33534;51.028;13.716;2022-11-15T16:58:05;39.80;;;25.33;;
47772;SDS011;33534;51.028;13.716;2022-11-15T17:00:31;43.00;;;23.95;;
47772;SDS011;33534;51.028;13.716;2022-11-15T17:02:57;42.30;;;24.98;;
47772;SDS011;33534;51.028;13.716;2022-11-15T17:05:23;42.85;;;25.40;;
47772;SDS011;33534;51.028;13.716;2022-11-15T17:07:51;44.55;;;24.17;;
47772;SDS011;33534;51.028;13.716;2022-11-15T17:10:21;42.50;;;24.52;;
47772;SDS011;33534;51.028;13.716;2022-11-15T17:12:55;45.28;;;24.73;;
47772;SDS011;33534;51.028;13.716;2022-11-15T17:15:38;42.28;;;26.35;;
47772;SDS011;33534;51.028;13.716;2022-11-15T17:18:22;42.00;;;26.13;;
47772;SDS011;33534;51.028;13.716;2022-11-15T17:20:48;38.88;;;22.38;;
47772;SDS011;33534;51.028;13.716;2022-11-15T17:23:32;46.05;;;26.80;;
47772;SDS011;33534;51.028;13.716;2022-11-15T17:32:02;42.00;;;24.73;;
47772;SDS011;33534;51.028;13.716;2022-11-15T17:34:59;44.67;;;25.83;;
47772;SDS011;33534;51.028;13.716;2022-11-15T17:37:56;42.90;;;25.60;;
47772;SDS011;33534;51.028;13.716;2022-11-15T17:40:24;48.42;;;28.90;;
47772;SDS011;33534;51.028;13.716;2022-11-15T17:46:25;47.92;;;26.08;;
47772;SDS011;33534;51.028;13.716;2022-11-15T17:49:00;46.80;;;27.08;;
47772;SDS011;33534;51.028;13.716;2022-11-15T17:51:29;49.85;;;26.88;;
47772;SDS011;33534;51.028;13.716;2022-11-15T17:53:55;45.28;;;26.25;;
47772;SDS011;33534;51.028;13.716;2022-11-15T17:56:24;43.80;;;27.15;;
47772;SDS011;33534;51.028;13.716;2022-11-15T17:58:51;49.65;;;27.65;;
47772;SDS011;33534;51.028;13.716;2022-11-15T18:04:33;45.25;;;26.83;;
47772;SDS011;33534;51.028;13.716;2022-11-15T18:07:20;48.38;;;26.00;;
47772;SDS011;33534;51.028;13.716;2022-11-15T18:09:51;42.13;;;26.00;;
47772;SDS011;33534;51.028;13.716;2022-11-15T18:12:35;50.00;;;27.38;;
47772;SDS011;33534;51.028;13.716;2022-11-15T18:15:15;44.35;;;26.52;;
47772;SDS011;33534;51.028;13.716;2022-11-15T18:18:06;47.58;;;27.40;;
47772;SDS011;33534;51.028;13.716;2022-11-15T18:20:31;51.25;;;27.67;;
47772;SDS011;33534;51.028;13.716;2022-11-15T18:22:57;48.35;;;26.20;;
47772;SDS011;33534;51.028;13.716;2022-11-15T18:25:35;49.35;;;27.63;;
47772;SDS011;33534;51.028;13.716;2022-11-15T18:28:05;42.80;;;26.42;;
47772;SDS011;33534;51.028;13.716;2022-11-15T18:30:49;47.40;;;26.15;;
47772;SDS011;33534;51.028;13.716;2022-11-15T18:36:08;49.75;;;25.83;;
47772;SDS011;33534;51.028;13.716;2022-11-15T18:41:47;51.08;;;28.13;;
47772;SDS011;33534;51.028;13.716;2022-11-15T18:47:37;54.15;;;29.13;;
47772;SDS011;33534;51.028;13.716;2022-11-15T18:50:23;50.28;;;27.95;;
47772;SDS011;33534;51.028;13.716;2022-11-15T18:52:52;48.45;;;26.35;;
47772;SDS011;33534;51.028;13.716;2022-11-15T18:58:37;48.38;;;26.00;;
47772;SDS011;33534;51.028;13.716;2022-11-15T19:01:10;50.60;;;26.63;;
47772;SDS011;33534;51.028;13.716;2022-11-15T19:04:26;53.53;;;28.25;;
47772;SDS011;33534;51.028;13.716;2022-11-15T19:06:50;46.78;;;26.33;;
47772;SDS011;33534;51.028;13.716;2022-11-15T19:12:28;44.80;;;26.05;;
47772;SDS011;33534;51.028;13.716;2022-11-15T19:14:57;48.75;;;26.25;;
47772;SDS011;33534;51.028;13.716;2022-11-15T19:17:31;44.67;;;26.83;;
47772;SDS011;33534;51.028;13.716;2022-11-15T19:20:00;46.88;;;26.85;;
47772;SDS011;33534;51.028;13.716;2022-11-15T19:22:43;49.78;;;25.40;;
47772;SDS011;33534;51.028;13.716;2022-11-15T19:25:12;46.00;;;26.20;;
47772;SDS011;33534;51.028;13.716;2022-11-15T19:27:56;51.90;;;26.63;;
47772;SDS011;33534;51.028;13.716;2022-11-15T19:30:38;50.88;;;26.33;;
47772;SDS011;33534;51.028;13.716;2022-11-15T19:33:04;53.40;;;27.52;;
47772;SDS011;33534;51.028;13.716;2022-11-15T19:35:41;51.65;;;29.35;;
47772;SDS011;33534;51.028;13.716;2022-11-15T19:38:10;47.03;;;27.02;;
47772;SDS011;33534;51.028;13.716;2022-11-15T19:40:45;42.85;;;25.10;;
47772;SDS011;33534;51.028;13.716;2022-11-15T19:49:10;46.33;;;25.88;;
47772;SDS011;33534;51.028;13.716;2022-11-15T19:51:56;56.08;;;27.95;;
47772;SDS011;33534;51.028;13.716;2022-11-15T19:57:58;48.38;;;25.77;;
47772;SDS011;33534;51.028;13.716;2022-11-15T20:00:27;48.58;;;25.63;;
47772;SDS011;33534;51.028;13.716;2022-11-15T20:02:53;48.38;;;25.80;;
47772;SDS011;33534;51.028;13.716;2022-11-15T20:05:22;45.05;;;25.30;;
47772;SDS011;33534;51.028;13.716;2022-11-15T20:07:55;48.55;;;28.17;;
47772;SDS011;33534;51.028;13.716;2022-11-15T20:10:27;46.08;;;26.27;;
47772;SDS011;33534;51.028;13.716;2022-11-15T20:12:57;46.83;;;25.15;;
47772;SDS011;33534;51.028;13.716;2022-11-15T20:15:23;44.67;;;24.73;;
47772;SDS011;33534;51.028;13.716;2022-11-15T20:17:51;45.72;;;23.23;;
47772;SDS011;33534;51.028;13.716;2022-11-15T20:20:17;42.92;;;23.90;;
47772;SDS011;33534;51.028;13.716;2022-11-15T20:22:46;48.75;;;24.35;;
47772;SDS011;33534;51.028;13.716;2022-11-15T20:25:16;39.67;;;22.40;;
47772;SDS011;33534;51.028;13.716;2022-11-15T20:27:45;42.38;;;22.65;;
47772;SDS011;33534;51.028;13.716;2022-11-15T20:30:13;45.53;;;22.45;;
47772;SDS011;33534;51.028;13.716;2022-11-15T20:32:40;44.10;;;23.52;;
47772;SDS011;33534;51.028;13.716;2022-11-15T20:35:06;38.58;;;22.40;;
47772;SDS011;33534;51.028;13.716;2022-11-15T20:41:06;36.72;;;21.50;;
47772;SDS011;33534;51.028;13.716;2022-11-15T20:43:35;42.63;;;21.60;;
47772;SDS011;33534;51.028;13.716;2022-11-15T20:49:02;40.38;;;22.50;;
47772;SDS011;33534;51.028;13.716;2022-11-15T20:54:12;35.72;;;20.65;;
47772;SDS011;33534;51.028;13.716;2022-11-15T20:56:38;34.85;;;19.80;;
47772;SDS011;33534;51.028;13.716;2022-11-15T20:59:07;32.55;;;20.08;;
47772;SDS011;33534;51.028;13.716;2022-11-15T21:01:41;35.08;;;20.00;;
47772;SDS011;33534;51.028;13.716;2022-11-15T21:04:07;42.45;;;22.65;;
47772;SDS011;33534;51.028;13.716;2022-11-15T21:06:33;38.10;;;21.08;;
47772;SDS011;33534;51.028;13.716;2022-11-15T21:08:59;38.95;;;21.23;;
47772;SDS011;33534;51.028;13.716;2022-11-15T21:11:44;36.65;;;20.17;;
47772;SDS011;33534;51.028;13.716;2022-11-15T21:14:28;40.45;;;21.65;;
47772;SDS011;33534;51.028;13.716;2022-11-15T21:16:54;33.58;;;21.23;;
47772;SDS011;33534;51.028;13.716;2022-11-15T21:19:20;35.75;;;20.48;;
47772;SDS011;33534;51.028;13.716;2022-11-15T21:21:47;32.72;;;19.58;;
47772;SDS011;33534;51.028;13.716;2022-11-15T21:24:13;38.75;;;21.77;;
47772;SDS011;33534;51.028;13.716;2022-11-15T21:26:39;40.40;;;21.63;;
47772;SDS011;33534;51.028;13.716;2022-11-15T21:29:05;37.60;;;20.58;;
47772;SDS011;33534;51.028;13.716;2022-11-15T21:31:34;34.80;;;20.27;;
47772;SDS011;33534;51.028;13.716;2022-11-15T21:34:02;39.60;;;21.23;;
47772;SDS011;33534;51.028;13.716;2022-11-15T21:36:31;37.90;;;22.23;;
47772;SDS011;33534;51.028;13.716;2022-11-15T21:39:08;34.88;;;20.30;;
47772;SDS011;33534;51.028;13.716;2022-11-15T21:41:38;36.95;;;20.70;;
47772;SDS011;33534;51.028;13.716;2022-11-15T21:44:09;38.05;;;20.38;;
47772;SDS011;33534;51.028;13.716;2022-11-15T21:46:43;38.80;;;20.38;;
47772;SDS011;33534;51.028;13.716;2022-11-15T21:49:12;39.50;;;20.60;;
47772;SDS011;33534;51.028;13.716;2022-11-15T21:51:39;36.03;;;21.00;;
47772;SDS011;33534;51.028;13.716;2022-11-15T21:54:08;35.88;;;19.55;;
47772;SDS011;33534;51.028;13.716;2022-11-15T21:56:34;36.65;;;20.17;;
47772;SDS011;33534;51.028;13.716;2022-11-15T21:59:00;35.20;;;20.67;;
47772;SDS011;33534;51.028;13.716;2022-11-15T22:01:26;36.00;;;21.23;;
47772;SDS011;33534;51.028;13.716;2022-11-15T22:04:12;36.47;;;20.40;;
47772;SDS011;33534;51.028;13.716;2022-11-15T22:06:38;40.78;;;20.52;;
47772;SDS011;33534;51.028;13.716;2022-11-15T22:09:07;36.47;;;20.05;;
47772;SDS011;33534;51.028;13.716;2022-11-15T22:11:33;38.30;;;21.73;;
47772;SDS011;33534;51.028;13.716;2022-11-15T22:14:00;37.42;;;20.38;;
47772;SDS011;33534;51.028;13.716;2022-11-15T22:16:26;34.38;;;19.67;;
47772;SDS011;33534;51.028;13.716;2022-11-15T22:18:52;34.28;;;20.15;;
47772;SDS011;33534;51.028;13.716;2022-11-15T22:21:18;35.22;;;19.40;;
47772;SDS011;33534;51.028;13.716;2022-11-15T22:23:44;34.90;;;20.98;;
47772;SDS011;33534;51.028;13.716;2022-11-15T22:26:11;35.58;;;19.58;;
47772;SDS011;33534;51.028;13.716;2022-11-15T22:28:38;32.15;;;18.83;;
47772;SDS011;33534;51.028;13.716;2022-11-15T22:31:04;32.40;;;19.58;;
47772;SDS011;33534;51.028;13.716;2022-11-15T22:33:30;36.03;;;20.80;;
47772;SDS011;33534;51.028;13.716;2022-11-15T22:35:57;32.30;;;19.58;;
47772;SDS011;33534;51.028;13.716;2022-11-15T22:38:23;36.67;;;20.90;;
47772;SDS011;33534;51.028;13.716;2022-11-15T22:40:49;32.70;;;20.10;;
47772;SDS011;33534;51.028;13.716;2022-11-15T22:46:28;31.83;;;19.25;;
47772;SDS011;33534;51.028;13.716;2022-11-15T22:48:54;33.63;;;21.27;;
47772;SDS011;33534;51.028;13.716;2022-11-15T22:51:20;29.95;;;18.30;;
47772;SDS011;33534;51.028;13.716;2022-11-15T22:53:46;33.08;;;20.05;;
47772;SDS011;33534;51.028;13.716;2022-11-15T22:56:12;31.48;;;19.63;;
47772;SDS011;33534;51.028;13.716;2022-11-15T22:58:38;34.25;;;18.48;;
47772;SDS011;33534;51.028;13.716;2022-11-15T23:01:04;33.38;;;19.42;;
47772;SDS011;33534;51.028;13.716;2022-11-15T23:03:31;31.83;;;18.98;;
47772;SDS011;33534;51.028;13.716;2022-11-15T23:06:02;30.20;;;17.67;;
47772;SDS011;33534;51.028;13.716;2022-11-15T23:08:28;37.28;;;20.65;;
47772;SDS011;33534;51.028;13.716;2022-11-15T23:10:54;31.90;;;18.98;;
47772;SDS011;33534;51.028;13.716;2022-11-15T23:13:39;28.63;;;16.65;;
47772;SDS011;33534;51.028;13.716;2022-11-15T23:16:06;31.58;;;18.85;;
47772;SDS011;33534;51.028;13.716;2022-11-15T23:18:53;33.67;;;19.50;;
47772;SDS011;33534;51.028;13.716;2022-11-15T23:21:21;33.47;;;18.23;;
47772;SDS011;33534;51.028;13.716;2022-11-15T23:24:07;32.30;;;19.25;;
47772;SDS011;33534;51.028;13.716;2022-11-15T23:26:34;32.83;;;19.15;;
47772;SDS011;33534;51.028;13.716;2022-11-15T23:29:00;29.30;;;17.98;;
47772;SDS011;33534;51.028;13.716;2022-11-15T23:31:26;28.70;;;18.33;;
47772;SDS011;33534;51.028;13.716;2022-11-15T23:34:10;26.55;;;16.45;;
47772;SDS011;33534;51.028;13.716;2022-11-15T23:36:37;30.60;;;17.85;;
47772;SDS011;33534;51.028;13.716;2022-11-15T23:39:04;27.33;;;16.92;;
47772;SDS011;33534;51.028;13.716;2022-11-15T23:41:30;31.67;;;17.60;;
47772;SDS011;33534;51.028;13.716;2022-11-15T23:43:56;28.98;;;16.83;;
47772;SDS011;33534;51.028;13.716;2022-11-15T23:46:22;26.63;;;16.20;;
47772;SDS011;33534;51.028;13.716;2022-11-15T23:48:49;22.52;;;15.25;;
47772;SDS011;33534;51.028;13.716;2022-11-15T23:51:15;28.35;;;17.02;;
47772;SDS011;33534;51.028;13.716;2022-11-15T23:53:41;27.27;;;16.80;;
47772;SDS011;33534;51.028;13.716;2022-11-15T23:56:11;25.75;;;16.52;;
47772;SDS011;33534;51.028;13.716;2022-11-15T23:58:37;26.98;;;16.42;;
